Time;durP1;ratioP1;P1;durP2;ratioP2;P2;SDS_P1;SDS_P2;PMS_P1;PMS_P2;Temp;Humidity;BMP_temperature;BMP_pressure;BME280_temperature;BME280_humidity;BME280_pressure;Samples;Min_cycle;Max_cycle;Signal;HPM_P1;HPM_P2
2023/04/22 00:01:56;;;;;;;10.95;7.63;;;;;;;;;;10336166;28;20050;-82
2023/04/22 00:06:57;;;;;;;8.93;6.97;;;;;;;;;;10326476;28;20422;-82
2023/04/22 00:11:57;;;;;;;7.22;6.50;;;;;;;;;;10344252;28;20033;-82
2023/04/22 00:16:59;;;;;;;8.32;5.95;;;;;;;;;;10358523;28;20053;-84
2023/04/22 00:22:00;;;;;;;7.32;5.43;;;;;;;;;;10336614;28;20073;-83
2023/04/22 00:27:01;;;;;;;5.95;5.38;;;;;;;;;;10334066;28;20061;-83
2023/04/22 00:32:02;;;;;;;7.53;5.73;;;;;;;;;;10390954;28;20074;-83
2023/04/22 00:37:08;;;;;;;7.10;5.57;;;;;;;;;;10392487;28;20061;-78
2023/04/22 00:42:08;;;;;;;6.88;5.65;;;;;;;;;;10364305;28;20609;-78
2023/04/22 00:47:09;;;;;;;6.93;6.03;;;;;;;;;;10344182;28;20070;-83
2023/04/22 00:52:11;;;;;;;6.95;6.07;;;;;;;;;;10378349;28;20343;-81
2023/04/22 00:57:11;;;;;;;7.53;5.50;;;;;;;;;;10373423;28;20121;-81
2023/04/22 01:02:12;;;;;;;7.72;5.40;;;;;;;;;;10364817;28;20120;-81
2023/04/22 01:07:12;;;;;;;6.07;5.47;;;;;;;;;;10351212;28;20050;-80
2023/04/22 01:12:15;;;;;;;6.87;5.70;;;;;;;;;;10333395;28;20299;-79
2023/04/22 01:17:18;;;;;;;;;;;;;;;;;;10330199;28;20285;-81
2023/04/22 01:22:19;;;;;;;7.32;5.40;;;;;;;;;;10361606;28;19912;-80
2023/04/22 01:27:22;;;;;;;7.15;5.97;;;;;;;;;;10402981;28;20092;-82
2023/04/22 01:32:23;;;;;;;7.25;6.20;;;;;;;;;;10383730;28;20049;-86
2023/04/22 01:37:23;;;;;;;8.18;5.93;;;;;;;;;;10392022;28;20093;-80
2023/04/22 01:42:25;;;;;;;7.35;6.40;;;;;;;;;;10400718;28;20771;-81
2023/04/22 01:47:27;;;;;;;7.70;6.05;;;;;;;;;;10348264;28;20072;-82
2023/04/22 01:52:31;;;;;;;8.30;6.35;;;;;;;;;;10345989;28;20060;-81
2023/04/22 01:57:32;;;;;;;7.65;6.25;;;;;;;;;;10365206;28;20549;-83
2023/04/22 02:02:33;;;;;;;8.13;5.80;;;;;;;;;;10334230;28;20414;-80
2023/04/22 02:07:35;;;;;;;8.07;6.43;;;;;;;;;;10324031;28;20053;-80
2023/04/22 02:12:37;;;;;;;9.80;6.20;;;;;;;;;;10342669;28;20050;-85
2023/04/22 02:17:41;;;;;;;8.07;6.18;;;;;;;;;;10361718;28;20177;-78
2023/04/22 02:22:41;;;;;;;;;;;;;;;;;;10343310;28;20070;-81
2023/04/22 02:27:41;;;;;;;8.70;6.07;;;;;;;;;;10330942;28;19929;-84
2023/04/22 02:32:42;;;;;;;7.38;6.32;;;;;;;;;;10326965;28;20069;-82
2023/04/22 02:37:42;;;;;;;7.10;6.23;;;;;;;;;;10344253;28;20128;-81
2023/04/22 02:42:42;;;;;;;7.37;6.53;;;;;;;;;;10347145;28;20307;-84
2023/04/22 02:47:45;;;;;;;8.52;6.78;;;;;;;;;;10357716;28;20765;-83
2023/04/22 02:52:47;;;;;;;8.20;6.07;;;;;;;;;;10379745;28;20034;-82
2023/04/22 02:57:47;;;;;;;8.13;6.63;;;;;;;;;;10403510;28;20038;-82
2023/04/22 03:02:48;;;;;;;9.88;6.50;;;;;;;;;;10364700;28;20057;-83
2023/04/22 03:07:50;;;;;;;7.70;6.07;;;;;;;;;;10358235;28;20069;-84
2023/04/22 03:12:51;;;;;;;9.07;6.65;;;;;;;;;;10353784;28;20054;-81
2023/04/22 03:17:54;;;;;;;8.82;6.85;;;;;;;;;;10327957;28;20050;-83
2023/04/22 03:22:56;;;;;;;11.88;7.25;;;;;;;;;;10338882;28;20070;-81
2023/04/22 03:27:59;;;;;;;8.43;6.93;;;;;;;;;;10379317;28;20066;-77
2023/04/22 03:32:59;;;;;;;11.63;7.20;;;;;;;;;;10389224;28;20039;-79
2023/04/22 03:38:18;;;;;;;13.77;7.43;;;;;;;;;;10380016;28;20270;-79
2023/04/22 03:43:19;;;;;;;7.93;6.70;;;;;;;;;;10355308;28;20042;-78
2023/04/22 03:48:34;;;;;;;8.45;6.95;;;;;;;;;;10382985;28;20061;-81
2023/04/22 03:53:37;;;;;;;7.97;6.68;;;;;;;;;;10360392;28;20529;-80
2023/04/22 03:58:38;;;;;;;9.77;6.97;;;;;;;;;;10325982;28;20057;-81
2023/04/22 04:03:41;;;;;;;8.00;6.53;;;;;;;;;;10318429;28;20053;-81
2023/04/22 04:08:45;;;;;;;9.17;6.27;;;;;;;;;;10318161;28;20164;-80
2023/04/22 04:13:46;;;;;;;8.17;5.93;;;;;;;;;;10347128;28;20042;-80
2023/04/22 04:19:02;;;;;;;8.90;6.85;;;;;;;;;;10313303;28;20081;-81
2023/04/22 04:24:23;;;;;;;7.75;5.88;;;;;;;;;;10348931;28;20050;-84
2023/04/22 04:29:30;;;;;;;9.82;6.25;;;;;;;;;;10371849;28;20058;-80
2023/04/22 04:34:56;;;;;;;7.03;6.07;;;;;;;;;;10375304;28;20028;-81
2023/04/22 04:40:00;;;;;;;6.30;5.30;;;;;;;;;;10356253;28;20046;-80
2023/04/22 04:45:18;;;;;;;8.63;6.00;;;;;;;;;;10366405;28;20122;-81
2023/04/22 04:50:20;;;;;;;8.95;5.93;;;;;;;;;;10357546;28;20047;-82
2023/04/22 04:55:21;;;;;;;7.18;5.68;;;;;;;;;;10397983;28;20030;-81
2023/04/22 05:00:23;;;;;;;6.35;5.50;;;;;;;;;;10358147;28;20049;-80
2023/04/22 05:05:26;;;;;;;7.97;5.82;;;;;;;;;;10361869;28;20136;-80
2023/04/22 05:10:27;;;;;;;6.88;5.63;;;;;;;;;;10330038;28;20061;-81
2023/04/22 05:15:31;;;;;;;8.00;5.80;;;;;;;;;;10325127;28;20172;-83
2023/04/22 05:20:32;;;;;;;6.70;5.70;;;;;;;;;;10357553;28;20050;-79
2023/04/22 05:25:35;;;;;;;7.05;5.35;;;;;;;;;;10393127;28;20113;-82
2023/04/22 05:30:42;;;;;;;5.97;5.32;;;;;;;;;;10375625;28;20069;-84
2023/04/22 05:35:45;;;;;;;5.90;4.90;;;;;;;;;;10350588;28;20414;-85
2023/04/22 05:40:46;;;;;;;5.80;4.97;;;;;;;;;;10370778;28;20257;-82
2023/04/22 05:45:53;;;;;;;6.45;5.38;;;;;;;;;;10393441;28;20129;-84
2023/04/22 05:50:56;;;;;;;6.78;5.57;;;;;;;;;;10385481;28;20026;-78
2023/04/22 06:01:23;;;;;;;6.85;5.63;;;;;;;;;;10666446;23;20042;-82
2023/04/22 06:06:43;;;;;;;5.80;4.80;;;;;;;;;;10368151;28;20058;-84
2023/04/22 06:11:47;;;;;;;6.65;4.70;;;;;;;;;;10356544;28;20056;-88
2023/04/22 06:16:49;;;;;;;5.97;4.68;;;;;;;;;;10526546;23;20844;-83
2023/04/22 06:21:49;;;;;;;6.32;5.03;;;;;;;;;;10243053;28;20081;-81
2023/04/22 06:26:50;;;;;;;5.90;5.00;;;;;;;;;;10275860;28;20054;-83
2023/04/22 06:31:52;;;;;;;6.05;5.20;;;;;;;;;;10248161;28;20122;-81
2023/04/22 06:36:53;;;;;;;5.93;5.18;;;;;;;;;;10241857;28;20043;-83
2023/04/22 06:41:55;;;;;;;7.50;4.72;;;;;;;;;;10243026;28;20138;-80
2023/04/22 06:47:23;;;;;;;8.10;4.90;;;;;;;;;;10261438;28;20066;-83
2023/04/22 06:52:41;;;;;;;5.80;4.65;;;;;;;;;;10234628;28;20075;-82
2023/04/22 06:57:41;;;;;;;6.03;4.10;;;;;;;;;;10247040;28;20051;-81
2023/04/22 07:02:42;;;;;;;7.33;4.17;;;;;;;;;;10279681;28;20086;-83
2023/04/22 07:07:44;;;;;;;7.38;4.93;;;;;;;;;;10251151;28;20314;-83
2023/04/22 07:12:50;;;;;;;7.22;4.20;;;;;;;;;;10242922;28;20046;-79
2023/04/22 07:17:51;;;;;;;7.27;4.30;;;;;;;;;;10259558;28;20042;-78
2023/04/22 07:22:51;;;;;;;4.97;4.10;;;;;;;;;;10259645;28;20039;-83
2023/04/22 07:27:51;;;;;;;5.63;3.90;;;;;;;;;;10257150;28;20647;-79
2023/04/22 07:32:52;;;;;;;5.97;4.50;;;;;;;;;;10262123;28;20304;-80
2023/04/22 07:37:52;;;;;;;6.28;4.38;;;;;;;;;;10262063;28;20285;-81
2023/04/22 07:42:52;;;;;;;4.53;3.93;;;;;;;;;;10274323;28;20041;-79
2023/04/22 07:47:53;;;;;;;5.22;4.57;;;;;;;;;;10301409;28;20145;-79
2023/04/22 07:52:55;;;;;;;6.80;4.78;;;;;;;;;;10308076;28;20047;-78
2023/04/22 07:57:55;;;;;;;5.60;4.47;;;;;;;;;;10266110;28;20454;-78
2023/04/22 08:02:55;;;;;;;5.57;4.47;;;;;;;;;;10260802;28;20042;-80
2023/04/22 08:07:56;;;;;;;5.40;4.10;;;;;;;;;;10263463;28;20055;-80
2023/04/22 08:12:56;;;;;;;6.78;4.63;;;;;;;;;;10264953;28;20049;-78
2023/04/22 08:17:57;;;;;;;6.43;4.60;;;;;;;;;;10242789;28;20146;-82
2023/04/22 08:22:59;;;;;;;8.45;4.85;;;;;;;;;;10262351;28;20283;-80
2023/04/22 08:27:59;;;;;;;6.60;4.68;;;;;;;;;;10243119;28;20062;-80
2023/04/22 08:33:01;;;;;;;8.53;5.20;;;;;;;;;;10268850;28;20043;-78
2023/04/22 08:38:02;;;;;;;7.97;4.47;;;;;;;;;;10300649;28;20039;-79
2023/04/22 08:43:02;;;;;;;5.95;4.07;;;;;;;;;;10255453;28;20039;-81
2023/04/22 08:48:03;;;;;;;7.82;5.50;;;;;;;;;;10265093;28;20526;-81
2023/04/22 08:53:04;;;;;;;5.65;4.72;;;;;;;;;;10261169;28;20057;-80
2023/04/22 08:58:04;;;;;;;4.88;4.20;;;;;;;;;;10261471;28;20705;-80
2023/04/22 09:03:05;;;;;;;4.95;4.38;;;;;;;;;;10265077;28;20047;-85
2023/04/22 09:08:06;;;;;;;5.13;4.43;;;;;;;;;;10268177;28;20059;-79
2023/04/22 09:13:07;;;;;;;5.10;4.60;;;;;;;;;;10251494;28;20577;-81
2023/04/22 09:18:09;;;;;;;5.35;4.07;;;;;;;;;;10235249;28;20058;-80
2023/04/22 09:23:10;;;;;;;4.57;3.90;;;;;;;;;;10261340;28;20416;-81
2023/04/22 09:28:14;;;;;;;4.68;3.85;;;;;;;;;;10268643;28;20070;-82
2023/04/22 09:33:16;;;;;;;4.80;3.80;;;;;;;;;;10258802;28;21528;-80
2023/04/22 09:38:16;;;;;;;4.00;3.60;;;;;;;;;;10233631;28;20074;-82
2023/04/22 09:43:19;;;;;;;5.90;3.67;;;;;;;;;;10260973;28;20079;-80
2023/04/22 09:48:19;;;;;;;;;;;;;;;;;;10249185;28;20058;-82
2023/04/22 09:53:21;;;;;;;4.32;3.42;;;;;;;;;;10255111;28;19922;-80
2023/04/22 09:58:26;;;;;;;5.00;3.95;;;;;;;;;;10279865;28;20043;-81
2023/04/22 10:03:30;;;;;;;4.15;3.65;;;;;;;;;;10267771;28;20078;-81
2023/04/22 10:08:32;;;;;;;5.55;3.63;;;;;;;;;;10282771;28;20039;-83
2023/04/22 10:13:35;;;;;;;3.55;3.13;;;;;;;;;;10289713;28;20051;-79
2023/04/22 10:18:38;;;;;;;4.50;3.35;;;;;;;;;;10243791;28;20069;-81
2023/04/22 10:23:44;;;;;;;4.38;3.25;;;;;;;;;;10241273;28;20158;-80
2023/04/22 10:28:44;;;;;;;5.03;3.20;;;;;;;;;;10256553;28;20129;-78
2023/04/22 10:33:46;;;;;;;4.20;3.30;;;;;;;;;;10254329;28;20106;-81
2023/04/22 10:38:54;;;;;;;3.30;2.80;;;;;;;;;;10258485;28;20158;-81
2023/04/22 10:43:59;;;;;;;3.67;2.80;;;;;;;;;;10243172;28;20792;-82
2023/04/22 10:49:05;;;;;;;3.53;2.95;;;;;;;;;;10278455;28;20423;-79
2023/04/22 10:54:06;;;;;;;3.45;2.95;;;;;;;;;;10261770;28;20058;-81
2023/04/22 10:59:16;;;;;;;4.78;3.60;;;;;;;;;;10263466;28;20039;-80
2023/04/22 11:04:21;;;;;;;2.53;2.33;;;;;;;;;;10245520;28;20055;-80
2023/04/22 11:09:24;;;;;;;4.13;2.80;;;;;;;;;;10254715;28;20070;-78
2023/04/22 11:14:24;;;;;;;3.30;2.78;;;;;;;;;;10236287;28;20491;-78
2023/04/22 11:19:26;;;;;;;2.55;2.05;;;;;;;;;;10237700;28;20063;-78
2023/04/22 11:24:26;;;;;;;3.40;2.43;;;;;;;;;;10257370;28;20065;-76
2023/04/22 11:29:27;;;;;;;3.33;2.47;;;;;;;;;;10239841;28;20065;-78
2023/04/22 11:34:28;;;;;;;2.78;2.20;;;;;;;;;;10239995;28;20074;-75
2023/04/22 11:39:35;;;;;;;3.55;2.50;;;;;;;;;;10258439;28;20086;-80
2023/04/22 11:44:36;;;;;;;2.05;1.40;;;;;;;;;;10253858;28;20043;-76
2023/04/22 11:49:37;;;;;;;2.57;1.90;;;;;;;;;;10244848;28;20145;-76
2023/04/22 11:54:40;;;;;;;2.03;1.80;;;;;;;;;;10265047;28;20042;-77
2023/04/22 11:59:41;;;;;;;3.03;1.80;;;;;;;;;;10316007;28;20027;-82
2023/04/22 12:04:42;;;;;;;3.38;1.90;;;;;;;;;;10315437;28;20073;-79
2023/04/22 12:09:43;;;;;;;3.45;2.30;;;;;;;;;;10314521;28;20058;-79
2023/04/22 12:14:45;;;;;;;2.72;2.10;;;;;;;;;;10288521;28;20043;-77
2023/04/22 12:19:46;;;;;;;2.38;1.98;;;;;;;;;;10226658;28;20047;-77
2023/04/22 12:24:47;;;;;;;2.05;1.42;;;;;;;;;;10268689;28;20053;-77
2023/04/22 12:29:52;;;;;;;1.37;1.27;;;;;;;;;;10241009;28;20055;-77
2023/04/22 12:34:53;;;;;;;1.73;1.50;;;;;;;;;;10250488;28;20047;-78
2023/04/22 12:39:53;;;;;;;1.52;1.40;;;;;;;;;;10260459;28;20082;-78
2023/04/22 12:44:54;;;;;;;2.28;1.50;;;;;;;;;;10274003;28;20420;-78
2023/04/22 12:49:54;;;;;;;4.22;1.77;;;;;;;;;;10233770;28;20491;-78
2023/04/22 12:54:54;;;;;;;2.53;1.77;;;;;;;;;;10242278;28;20046;-76
2023/04/22 12:59:56;;;;;;;3.53;2.03;;;;;;;;;;10260349;28;20091;-76
2023/04/22 13:04:56;;;;;;;2.60;1.98;;;;;;;;;;10262331;28;20051;-81
2023/04/22 13:09:57;;;;;;;4.43;1.83;;;;;;;;;;10260366;28;20055;-81
2023/04/22 13:14:59;;;;;;;2.27;2.00;;;;;;;;;;10255415;28;20156;-81
2023/04/22 13:20:03;;;;;;;2.13;1.88;;;;;;;;;;10260303;28;20656;-79
2023/04/22 13:25:03;;;;;;;2.33;2.10;;;;;;;;;;10236423;28;20055;-80
2023/04/22 13:30:06;;;;;;;2.47;2.07;;;;;;;;;;10254358;28;20047;-83
2023/04/22 13:35:07;;;;;;;3.92;2.60;;;;;;;;;;10257029;28;20042;-78
2023/04/22 13:40:08;;;;;;;;;;;;;;;;;;10254548;28;20494;-76
2023/04/22 13:45:08;;;;;;;3.03;2.73;;;;;;;;;;10262135;28;19929;-79
2023/04/22 13:50:10;;;;;;;;;;;;;;;;;;10259096;28;20491;-80
2023/04/22 13:55:10;;;;;;;2.92;2.05;;;;;;;;;;10267424;28;19930;-81
2023/04/22 14:00:11;;;;;;;2.37;2.17;;;;;;;;;;10247233;28;20604;-78
2023/04/22 14:05:14;;;;;;;2.50;2.30;;;;;;;;;;10259250;28;20055;-79
2023/04/22 14:10:16;;;;;;;2.53;2.33;;;;;;;;;;10260189;28;20047;-77
2023/04/22 14:15:16;;;;;;;3.22;2.42;;;;;;;;;;10258682;28;20082;-76
2023/04/22 14:20:17;;;;;;;2.80;2.50;;;;;;;;;;10271020;28;20031;-80
2023/04/22 14:25:17;;;;;;;2.33;2.13;;;;;;;;;;10277303;28;20161;-74
2023/04/22 14:30:20;;;;;;;2.20;2.00;;;;;;;;;;10278423;28;20278;-78
2023/04/22 14:35:20;;;;;;;2.35;1.90;;;;;;;;;;10279244;28;20052;-79
2023/04/22 14:40:24;;;;;;;3.73;2.10;;;;;;;;;;10280290;28;20050;-81
2023/04/22 14:45:27;;;;;;;3.83;2.10;;;;;;;;;;10260566;28;20046;-78
2023/04/22 14:50:27;;;;;;;2.78;2.15;;;;;;;;;;10253340;28;20058;-80
2023/04/22 14:55:30;;;;;;;2.30;2.10;;;;;;;;;;10264070;28;20050;-79
2023/04/22 15:00:30;;;;;;;2.50;2.30;;;;;;;;;;10273234;28;20047;-76
2023/04/22 15:05:30;;;;;;;2.50;2.30;;;;;;;;;;10266360;28;20051;-81
2023/04/22 15:10:31;;;;;;;2.70;2.30;;;;;;;;;;10269296;28;20063;-76
2023/04/22 15:15:31;;;;;;;2.40;2.00;;;;;;;;;;10282316;28;20047;-77
2023/04/22 15:20:32;;;;;;;2.90;2.23;;;;;;;;;;10307218;28;20039;-81
2023/04/22 15:25:34;;;;;;;;;;;;;;;;;;10257802;28;20463;-78
2023/04/22 15:30:36;;;;;;;2.13;1.92;;;;;;;;;;10228041;28;19956;-79
2023/04/22 15:35:38;;;;;;;2.78;1.83;;;;;;;;;;10250666;28;20551;-78
2023/04/22 15:40:38;;;;;;;2.07;1.87;;;;;;;;;;10254152;28;20042;-80
2023/04/22 15:45:38;;;;;;;4.97;3.33;;;;;;;;;;10259353;28;20129;-79
2023/04/22 15:50:39;;;;;;;12.80;8.30;;;;;;;;;;10255115;28;20063;-79
2023/04/22 15:55:41;;;;;;;8.00;4.00;;;;;;;;;;10243763;28;20459;-76
2023/04/22 16:00:42;;;;;;;12.07;10.20;;;;;;;;;;10242353;28;20158;-77
2023/04/22 16:05:42;;;;;;;4.43;3.03;;;;;;;;;;10235643;28;20077;-77
2023/04/22 16:10:42;;;;;;;2.53;2.05;;;;;;;;;;10240747;28;20054;-78
2023/04/22 16:15:43;;;;;;;3.88;2.20;;;;;;;;;;10255218;28;20058;-77
2023/04/22 16:20:43;;;;;;;2.30;2.10;;;;;;;;;;10236905;28;20035;-78
2023/04/22 16:25:43;;;;;;;3.60;2.00;;;;;;;;;;10258903;28;20534;-78
2023/04/22 16:30:44;;;;;;;4.27;2.20;;;;;;;;;;10249760;28;20146;-77
2023/04/22 16:35:44;;;;;;;3.13;2.30;;;;;;;;;;10232166;28;20608;-75
2023/04/22 16:40:45;;;;;;;4.47;2.45;;;;;;;;;;10236249;28;20043;-76
2023/04/22 16:45:45;;;;;;;4.00;2.50;;;;;;;;;;10259589;28;20053;-78
2023/04/22 16:50:46;;;;;;;5.83;3.30;;;;;;;;;;10297153;28;20410;-84
2023/04/22 16:55:48;;;;;;;4.05;2.35;;;;;;;;;;10295770;28;20299;-83
2023/04/22 17:00:49;;;;;;;3.07;2.40;;;;;;;;;;10302970;28;20465;-86
2023/04/22 17:05:50;;;;;;;4.40;2.33;;;;;;;;;;10306826;28;20051;-86
2023/04/22 17:10:51;;;;;;;3.53;2.23;;;;;;;;;;10306543;28;20050;-84
2023/04/22 17:15:51;;;;;;;3.53;2.00;;;;;;;;;;10296664;28;20296;-84
2023/04/22 17:20:52;;;;;;;2.83;1.97;;;;;;;;;;10296866;28;20043;-86
2023/04/22 17:25:52;;;;;;;4.57;1.90;;;;;;;;;;10292912;28;20334;-82
2023/04/22 17:30:54;;;;;;;3.13;2.43;;;;;;;;;;10305213;28;20309;-83
2023/04/22 17:35:56;;;;;;;3.40;2.15;;;;;;;;;;10285888;28;20043;-80
2023/04/22 17:40:57;;;;;;;3.63;2.40;;;;;;;;;;10281778;28;20050;-81
2023/04/22 17:45:58;;;;;;;2.75;2.42;;;;;;;;;;10299133;28;20038;-84
2023/04/22 17:51:00;;;;;;;4.28;2.70;;;;;;;;;;10311441;28;20093;-81
2023/04/22 17:56:00;;;;;;;2.92;2.63;;;;;;;;;;10306654;28;20054;-82
2023/04/22 18:01:01;;;;;;;4.00;2.80;;;;;;;;;;10302628;28;20047;-83
2023/04/22 18:06:01;;;;;;;3.37;3.00;;;;;;;;;;10291710;28;20060;-84
2023/04/22 18:11:03;;;;;;;3.87;3.13;;;;;;;;;;10301397;28;20301;-83
2023/04/22 18:16:05;;;;;;;3.28;2.95;;;;;;;;;;10302934;28;20049;-84
2023/04/22 18:21:06;;;;;;;5.47;3.38;;;;;;;;;;10275015;28;20610;-84
2023/04/22 18:26:10;;;;;;;5.72;4.20;;;;;;;;;;10323374;28;20042;-84
2023/04/22 18:31:10;;;;;;;4.97;3.90;;;;;;;;;;10346299;28;20114;-85
2023/04/22 18:36:11;;;;;;;7.55;4.03;;;;;;;;;;10311771;28;20054;-83
2023/04/22 18:41:12;;;;;;;5.85;3.78;;;;;;;;;;10315155;28;20418;-83
2023/04/22 18:46:12;;;;;;;4.88;4.10;;;;;;;;;;10307061;28;20076;-84
2023/04/22 18:51:13;;;;;;;5.07;3.87;;;;;;;;;;10320377;28;20077;-86
2023/04/22 18:56:14;;;;;;;5.60;4.35;;;;;;;;;;10334453;28;20051;-82
2023/04/22 19:01:15;;;;;;;5.03;4.50;;;;;;;;;;10305820;28;20046;-82
2023/04/22 19:06:16;;;;;;;7.22;4.60;;;;;;;;;;10350151;28;20073;-82
2023/04/22 19:11:16;;;;;;;6.93;4.77;;;;;;;;;;10313146;28;20351;-83
2023/04/22 19:16:16;;;;;;;5.53;4.82;;;;;;;;;;10298074;28;20424;-83
2023/04/22 19:21:18;;;;;;;5.83;4.13;;;;;;;;;;10305355;28;20471;-84
2023/04/22 19:26:19;;;;;;;4.77;4.23;;;;;;;;;;10330136;28;20309;-82
2023/04/22 19:31:20;;;;;;;6.47;4.30;;;;;;;;;;10306556;28;20054;-80
2023/04/22 19:36:22;;;;;;;4.57;4.13;;;;;;;;;;10334470;28;20041;-78
2023/04/22 19:41:24;;;;;;;4.50;3.77;;;;;;;;;;10356595;28;20086;-81
2023/04/22 19:46:24;;;;;;;4.90;4.13;;;;;;;;;;10361369;28;20066;-79
2023/04/22 19:51:26;;;;;;;5.63;4.25;;;;;;;;;;10344123;28;20043;-83
2023/04/22 19:56:27;;;;;;;4.45;3.83;;;;;;;;;;10304364;28;20042;-84
2023/04/22 20:01:28;;;;;;;5.40;4.25;;;;;;;;;;10314702;28;20046;-84
2023/04/22 20:06:30;;;;;;;5.65;4.13;;;;;;;;;;10318836;28;20492;-80
2023/04/22 20:11:31;;;;;;;7.70;4.30;;;;;;;;;;10302897;28;20088;-80
2023/04/22 20:16:31;;;;;;;3.50;3.20;;;;;;;;;;10284026;28;20142;-82
2023/04/22 20:21:33;;;;;;;5.57;4.32;;;;;;;;;;10295409;28;20039;-80
2023/04/22 20:26:34;;;;;;;6.68;4.10;;;;;;;;;;10311456;28;20038;-85
2023/04/22 20:31:39;;;;;;;4.68;3.85;;;;;;;;;;10356906;28;20054;-86
2023/04/22 20:36:43;;;;;;;5.77;4.77;;;;;;;;;;10340787;28;20069;-85
2023/04/22 20:41:47;;;;;;;5.68;4.10;;;;;;;;;;10334763;28;20069;-87
2023/04/22 20:46:49;;;;;;;5.75;4.55;;;;;;;;;;10295209;28;20057;-83
2023/04/22 20:51:50;;;;;;;5.23;4.23;;;;;;;;;;10322432;28;20066;-85
2023/04/22 20:56:50;;;;;;;7.88;5.25;;;;;;;;;;10309718;28;20285;-87
2023/04/22 21:01:59;;;;;;;4.72;4.25;;;;;;;;;;10334846;28;20049;-86
2023/04/22 21:07:06;;;;;;;5.90;4.53;;;;;;;;;;10316389;28;20070;-87
2023/04/22 21:12:09;;;;;;;5.38;4.78;;;;;;;;;;10330357;28;20112;-84
2023/04/22 21:17:23;;;;;;;5.35;4.82;;;;;;;;;;10321200;28;20031;-84
2023/04/22 21:22:27;;;;;;;6.70;5.57;;;;;;;;;;10346414;28;20039;-85
2023/04/22 21:27:30;;;;;;;6.65;5.32;;;;;;;;;;10355929;28;20077;-85
2023/04/22 21:32:32;;;;;;;8.48;6.22;;;;;;;;;;10365884;28;20026;-83
2023/04/22 21:37:34;;;;;;;8.00;6.05;;;;;;;;;;10360929;28;20030;-83
2023/04/22 21:42:34;;;;;;;7.90;6.25;;;;;;;;;;10359906;28;20047;-80
2023/04/22 21:47:35;;;;;;;6.73;6.03;;;;;;;;;;10340611;28;20137;-81
2023/04/22 21:52:37;;;;;;;6.30;5.57;;;;;;;;;;10332215;28;20042;-79
2023/04/22 21:57:37;;;;;;;6.68;5.63;;;;;;;;;;10358009;28;20390;-81
2023/04/22 22:02:38;;;;;;;6.18;5.43;;;;;;;;;;10325949;28;20046;-81
2023/04/22 22:07:39;;;;;;;5.50;4.83;;;;;;;;;;10334489;28;20101;-80
2023/04/22 22:12:40;;;;;;;7.22;4.70;;;;;;;;;;10297471;28;20400;-83
2023/04/22 22:17:41;;;;;;;4.50;4.10;;;;;;;;;;10309330;28;20077;-82
2023/04/22 22:22:43;;;;;;;5.38;3.67;;;;;;;;;;10311167;28;20093;-83
2023/04/22 22:27:47;;;;;;;3.75;3.10;;;;;;;;;;10310737;28;20058;-82
2023/04/22 22:32:48;;;;;;;3.20;2.83;;;;;;;;;;10315530;28;20050;-83
2023/04/22 22:37:49;;;;;;;3.30;3.00;;;;;;;;;;10340567;28;20089;-88
2023/04/22 22:42:51;;;;;;;5.78;3.65;;;;;;;;;;10325695;28;20590;-87
2023/04/22 22:47:54;;;;;;;4.35;3.33;;;;;;;;;;10344798;28;20053;-86
2023/04/22 22:52:56;;;;;;;;;;;;;;;;;;10334993;28;20049;-86
2023/04/22 22:57:56;;;;;;;5.15;4.40;;;;;;;;;;10352980;28;20233;-85
2023/04/22 23:02:58;;;;;;;4.30;3.90;;;;;;;;;;10349356;28;20051;-84
2023/04/22 23:08:01;;;;;;;4.67;4.27;;;;;;;;;;10307094;28;20050;-85
2023/04/22 23:13:03;;;;;;;4.60;4.15;;;;;;;;;;10322315;28;20376;-86
2023/04/22 23:18:03;;;;;;;5.03;4.53;;;;;;;;;;10314532;28;20420;-84
2023/04/22 23:23:03;;;;;;;6.93;5.20;;;;;;;;;;10309365;28;20101;-84
2023/04/22 23:28:05;;;;;;;5.57;4.97;;;;;;;;;;10315219;28;20081;-85
2023/04/22 23:33:07;;;;;;;5.78;4.80;;;;;;;;;;10349629;28;20066;-85
2023/04/22 23:38:09;;;;;;;6.20;5.05;;;;;;;;;;10367599;28;20026;-83
2023/04/22 23:43:09;;;;;;;5.65;4.63;;;;;;;;;;10288990;28;20577;-88
2023/04/22 23:48:11;;;;;;;6.60;5.18;;;;;;;;;;10309408;28;20065;-83
2023/04/22 23:53:11;;;;;;;6.15;5.32;;;;;;;;;;10318208;28;20058;-86
2023/04/22 23:58:12;;;;;;;5.60;5.00;;;;;;;;;;10317657;28;20049;-86
